Airfield :
LOGIN :

Register | Disclaimer

   EN    FR    IT 

 










Legend :    VFR   Marginal VFR   IFR   Intensive IFR   Very Intensive IFR
Visi :
Ceiling :
>= 8 km
>= 3000ft
5 to 8 km
1000 to 3000 ft
1500m to 5 km
500 to 1000 ft
800 to 1500m
200 to 500 ft
< 800m
< 200 ft
Symbols :   Thunderstorms  Fog  Heavy snow  Heavy precipitations  Wind > 20 kt
SIGMETs :     Misc.  Thunderstorms  Icing  Turbulence  Mountain Waves  Volcanic Ashes






- Airport Elevation : 16 ft
- IATA code : LPX


EVLA - Liepaja

CURRENT METAR :
  • 211750Z AUTO 25029KT 9999 SCT021/// BKN027/// OVC035/// 11/07 Q0982

EXPIRED METARs :
  • 211720Z AUTO 26023KT 9999 SCT023/// BKN029/// BKN100/// 10/07 Q0981
  • 211650Z AUTO 26027G37KT 9999 SCT021/// BKN067/// 10/06 Q0980
  • 211620Z AUTO 25027KT 9999 -RA FEW015/// BKN019/// OVC034/// 10/08 Q0979
  • 211550Z AUTO 23028KT 9999 -RA SCT016/// BKN018/// OVC045/// 11/09 Q0979
  • 211520Z AUTO 21023G34KT 9999 -RA FEW017/// BKN020/// OVC046/// 12/09 Q0978

TAF TAF EVLA
Valid from the 21 at 18:00 until the 22 at 18:00 UTC


211704Z 2118/2218 25018G28KT 9999 BKN020
TEMPO 2118/2214 24025G35KT BKN020CB



MET'MAP, your aeronautical weather chart ! - Copyright ORBIFLY December 2007 - Disclaimer

ORBIFLY MET'MAP TEAM :

Programming & Development : Alexandra Zaïnal
Concept & original design : Baudouin d'Aumeries
Assistance for programming : Marc-Olivier Méhu
Technical & hardware support : Manuel Goepfert

Contact : metmap@orbifly.com




SOURCES & CREDITS :

   NOAA